createdAt,value
2022-08-21T00:02:22.535Z,21.98
2022-08-21T00:04:57.714Z,17.52
2022-08-21T00:07:26.390Z,21.55
2022-08-21T00:09:54.551Z,21.45
2022-08-21T00:12:22.911Z,24.63
2022-08-21T00:14:50.481Z,22.35
2022-08-21T00:17:23.512Z,23.20
2022-08-21T00:19:51.032Z,22.20
2022-08-21T00:22:19.069Z,21.70
2022-08-21T00:24:46.698Z,18.75
2022-08-21T00:27:14.202Z,18.48
2022-08-21T00:29:41.793Z,22.73
2022-08-21T00:32:09.348Z,26.35
2022-08-21T00:34:36.959Z,19.73
2022-08-21T00:37:05.290Z,21.30
2022-08-21T00:42:00.197Z,25.45
2022-08-21T00:44:27.901Z,29.92
2022-08-21T00:46:55.431Z,18.25
2022-08-21T00:49:23.190Z,24.10
2022-08-21T00:51:56.020Z,18.85
2022-08-21T00:54:27.078Z,22.67
2022-08-21T00:57:01.283Z,20.10
2022-08-21T00:59:35.622Z,21.73
2022-08-21T01:02:04.739Z,23.52
2022-08-21T01:04:32.363Z,25.15
2022-08-21T01:06:59.928Z,21.90
2022-08-21T01:09:27.636Z,21.95
2022-08-21T01:11:55.533Z,28.48
2022-08-21T01:14:24.530Z,17.83
2022-08-21T01:16:53.819Z,19.33
2022-08-21T01:19:22.407Z,23.48
2022-08-21T01:21:50.910Z,22.67
2022-08-21T01:24:19.188Z,24.05
2022-08-21T01:29:48.207Z,24.38
2022-08-21T01:32:19.666Z,22.25
2022-08-21T01:34:49.390Z,28.45
2022-08-21T01:37:17.971Z,24.38
2022-08-21T01:39:46.399Z,27.90
2022-08-21T01:42:14.779Z,20.35
2022-08-21T01:47:14.652Z,21.40
2022-08-21T01:49:44.159Z,25.05
2022-08-21T01:52:12.712Z,22.77
2022-08-21T01:54:41.769Z,28.67
2022-08-21T01:57:10.073Z,21.67
2022-08-21T01:59:38.159Z,20.85
2022-08-21T02:02:07.059Z,19.92
2022-08-21T02:04:34.855Z,30.05
2022-08-21T02:07:02.607Z,26.02
2022-08-21T02:09:30.181Z,22.25
2022-08-21T02:11:58.779Z,26.67
2022-08-21T02:14:30.253Z,26.05
2022-08-21T02:17:09.524Z,25.17
2022-08-21T02:19:40.390Z,20.53
2022-08-21T02:22:10.221Z,26.73
2022-08-21T02:24:50.205Z,23.40
2022-08-21T02:27:27.195Z,37.83
2022-08-21T02:29:57.782Z,27.52
2022-08-21T02:32:26.761Z,21.92
2022-08-21T02:34:54.770Z,25.00
2022-08-21T02:37:24.014Z,26.80
2022-08-21T02:39:51.679Z,27.50
2022-08-21T02:42:19.310Z,26.45
2022-08-21T02:44:46.796Z,17.60
2022-08-21T02:47:15.219Z,31.08
2022-08-21T02:49:42.737Z,20.15
2022-08-21T02:52:10.339Z,27.38
2022-08-21T02:54:37.859Z,21.17
2022-08-21T02:57:05.500Z,19.67
2022-08-21T02:59:33.155Z,25.60
2022-08-21T03:02:00.735Z,27.25
2022-08-21T03:04:28.290Z,26.67
2022-08-21T03:06:55.880Z,26.05
2022-08-21T03:09:23.446Z,25.90
2022-08-21T03:11:52.312Z,17.17
2022-08-21T03:14:20.455Z,25.48
2022-08-21T03:16:48.002Z,24.58
2022-08-21T03:19:18.225Z,19.25
2022-08-21T03:21:45.779Z,23.67
2022-08-21T03:24:13.468Z,26.95
2022-08-21T03:26:41.514Z,26.77
2022-08-21T03:29:09.102Z,26.88
2022-08-21T03:31:36.713Z,22.17
2022-08-21T03:34:04.264Z,23.10
2022-08-21T03:36:31.840Z,25.15
2022-08-21T03:38:59.478Z,24.90
2022-08-21T03:41:27.044Z,24.63
2022-08-21T03:43:55.004Z,29.95
2022-08-21T03:46:22.634Z,20.77
2022-08-21T03:48:50.666Z,27.00
2022-08-21T03:51:18.177Z,25.27
2022-08-21T03:53:45.899Z,25.85
2022-08-21T03:56:13.650Z,34.40
2022-08-21T03:58:41.701Z,25.75
2022-08-21T04:01:09.618Z,20.88
2022-08-21T04:03:38.235Z,24.17
2022-08-21T04:06:06.456Z,27.55
2022-08-21T04:11:02.828Z,19.70
2022-08-21T04:13:30.480Z,21.33
2022-08-21T04:15:59.524Z,23.70
2022-08-21T04:18:27.128Z,24.90
2022-08-21T04:20:56.894Z,24.23
2022-08-21T04:23:26.859Z,23.20
2022-08-21T04:25:57.851Z,27.58
2022-08-21T04:28:29.127Z,30.95
2022-08-21T04:30:58.536Z,20.67
2022-08-21T04:35:54.385Z,26.63
2022-08-21T04:40:50.404Z,24.27
2022-08-21T04:43:19.214Z,27.23
2022-08-21T04:45:48.835Z,23.83
2022-08-21T04:48:19.949Z,28.10
2022-08-21T04:51:01.443Z,28.33
2022-08-21T04:53:37.214Z,20.30
2022-08-21T04:56:12.374Z,27.50
2022-08-21T04:58:42.732Z,19.98
2022-08-21T05:01:16.188Z,25.38
2022-08-21T05:03:45.543Z,30.10
2022-08-21T05:06:15.587Z,22.67
2022-08-21T05:08:45.882Z,21.50
2022-08-21T05:11:14.370Z,26.92
2022-08-21T05:16:10.796Z,26.35
2022-08-21T05:18:38.403Z,30.05
2022-08-21T05:21:06.238Z,20.58
2022-08-21T05:23:33.844Z,25.25
2022-08-21T05:26:02.016Z,26.85
2022-08-21T05:28:29.596Z,24.75
2022-08-21T05:30:57.404Z,29.25
2022-08-21T05:33:25.239Z,27.08
2022-08-21T05:35:56.664Z,25.15
2022-08-21T05:38:25.964Z,21.75
2022-08-21T05:40:54.355Z,23.17
2022-08-21T05:45:49.341Z,21.67
2022-08-21T05:48:25.546Z,18.48
2022-08-21T05:50:54.131Z,20.38
2022-08-21T05:53:25.471Z,22.65
2022-08-21T05:55:53.585Z,26.35
2022-08-21T05:58:23.706Z,21.15
2022-08-21T06:00:53.031Z,21.60
2022-08-21T06:03:26.818Z,21.95
2022-08-21T06:05:55.459Z,29.17
2022-08-21T06:08:24.285Z,20.27
2022-08-21T06:10:54.163Z,21.27
2022-08-21T06:13:23.407Z,20.52
2022-08-21T06:16:01.482Z,21.42
2022-08-21T06:20:56.392Z,23.00
2022-08-21T06:23:31.720Z,19.67
2022-08-21T06:26:05.761Z,20.33
2022-08-21T06:28:34.146Z,21.90
2022-08-21T06:31:01.906Z,19.90
2022-08-21T06:33:32.677Z,21.52
2022-08-21T06:36:01.053Z,19.33
2022-08-21T06:38:28.579Z,18.17
2022-08-21T06:40:56.486Z,25.00
2022-08-21T06:43:39.247Z,21.63
2022-08-21T06:46:08.792Z,19.80
2022-08-21T06:48:36.811Z,21.80
2022-08-21T06:51:04.616Z,16.40
2022-08-21T06:53:32.235Z,21.77
2022-08-21T06:55:59.826Z,20.88
2022-08-21T06:58:27.518Z,18.27
2022-08-21T07:01:00.562Z,26.15
2022-08-21T07:03:32.003Z,22.10
2022-08-21T07:05:59.531Z,20.10
2022-08-21T07:08:28.716Z,20.85
2022-08-21T07:10:58.511Z,22.23
2022-08-21T07:13:26.506Z,18.02
2022-08-21T07:15:54.255Z,23.98
2022-08-21T07:18:21.976Z,16.60
2022-08-21T07:20:49.973Z,16.63
2022-08-21T07:25:55.220Z,19.15
2022-08-21T07:30:55.632Z,20.05
2022-08-21T07:33:24.179Z,19.95
2022-08-21T07:35:51.836Z,17.83
2022-08-21T07:38:20.127Z,18.58
2022-08-21T07:43:19.222Z,17.77
2022-08-21T07:45:50.223Z,12.07
2022-08-21T07:48:17.996Z,13.55
2022-08-21T07:50:45.570Z,18.65
2022-08-21T07:53:15.813Z,15.93
2022-08-21T07:55:43.671Z,12.70
2022-08-21T07:58:11.346Z,17.25
2022-08-21T08:00:38.974Z,12.93
2022-08-21T08:03:06.674Z,15.07
2022-08-21T08:05:38.302Z,12.73
2022-08-21T08:08:05.851Z,17.85
2022-08-21T08:10:33.499Z,16.60
2022-08-21T08:13:02.390Z,16.05
2022-08-21T08:15:32.397Z,12.52
2022-08-21T08:18:05.236Z,14.32
2022-08-21T08:20:32.862Z,14.13
2022-08-21T08:23:00.829Z,15.48
2022-08-21T08:28:16.361Z,16.77
2022-08-21T08:30:54.301Z,19.55
2022-08-21T08:33:22.124Z,15.95
2022-08-21T08:35:52.733Z,15.18
2022-08-21T08:38:24.314Z,13.57
2022-08-21T08:41:13.899Z,14.55
2022-08-21T08:43:47.573Z,16.45
2022-08-21T08:46:26.799Z,18.27
2022-08-21T08:49:23.928Z,14.20
2022-08-21T08:52:00.554Z,13.70
2022-08-21T08:54:29.008Z,11.00
2022-08-21T08:56:56.769Z,16.88
2022-08-21T09:00:25.468Z,13.63
2022-08-21T09:03:01.903Z,12.52
2022-08-21T09:05:50.994Z,12.35
2022-08-21T09:08:51.052Z,12.18
2022-08-21T09:11:45.412Z,13.35
2022-08-21T09:14:35.779Z,10.98
2022-08-21T09:17:31.511Z,12.95
2022-08-21T09:20:11.440Z,14.32
2022-08-21T09:23:40.187Z,16.02
2022-08-21T09:26:21.362Z,14.18
2022-08-21T09:29:08.062Z,11.32
2022-08-21T09:31:40.330Z,8.82
2022-08-21T09:34:14.612Z,8.55
2022-08-21T09:36:51.534Z,11.73
2022-08-21T09:39:40.285Z,8.43
2022-08-21T09:42:11.070Z,11.85
2022-08-21T09:44:44.872Z,11.93
2022-08-21T09:47:16.049Z,9.75
2022-08-21T09:49:44.459Z,10.18
2022-08-21T09:52:22.799Z,14.15
2022-08-21T09:54:56.447Z,9.23
2022-08-21T09:57:56.081Z,8.70
2022-08-21T10:00:47.206Z,12.02
2022-08-21T10:03:19.855Z,15.23
2022-08-21T10:05:58.751Z,14.63
2022-08-21T10:08:29.692Z,12.80
2022-08-21T10:11:13.752Z,10.85
2022-08-21T10:14:16.113Z,13.50
2022-08-21T10:17:13.691Z,13.18
2022-08-21T10:20:03.805Z,10.57
2022-08-21T10:23:13.034Z,11.20
2022-08-21T10:26:17.640Z,11.90
2022-08-21T10:29:01.797Z,13.18
2022-08-21T10:31:37.273Z,10.05
2022-08-21T10:34:17.489Z,12.10
2022-08-21T10:37:06.526Z,9.38
2022-08-21T10:40:03.282Z,11.77
2022-08-21T10:42:48.561Z,8.75
2022-08-21T10:45:32.062Z,9.23
2022-08-21T10:48:15.504Z,9.90
2022-08-21T10:50:52.332Z,7.80
2022-08-21T10:53:46.035Z,7.68
2022-08-21T10:56:25.803Z,10.80
2022-08-21T10:59:23.813Z,10.15
2022-08-21T11:01:58.353Z,8.10
2022-08-21T11:04:30.034Z,11.02
2022-08-21T11:07:39.256Z,9.02
2022-08-21T11:10:29.927Z,9.30
2022-08-21T11:13:16.160Z,10.55
2022-08-21T11:15:46.943Z,12.30
2022-08-21T11:18:37.358Z,11.27
2022-08-21T11:21:46.674Z,8.95
2022-08-21T11:24:32.082Z,12.52
2022-08-21T11:27:09.483Z,9.90
2022-08-21T11:29:40.412Z,11.27
2022-08-21T11:32:13.803Z,16.63
2022-08-21T11:35:24.140Z,12.70
2022-08-21T11:38:21.441Z,14.60
2022-08-21T11:40:51.770Z,15.45
2022-08-21T11:43:45.828Z,10.98
2022-08-21T11:46:34.722Z,11.40
2022-08-21T11:49:16.679Z,13.10
2022-08-21T11:52:12.389Z,11.38
2022-08-21T11:54:49.104Z,15.18
2022-08-21T11:57:45.264Z,10.38
2022-08-21T12:00:26.907Z,12.23
2022-08-21T12:02:59.545Z,12.85
2022-08-21T12:05:36.157Z,10.48
2022-08-21T12:08:08.451Z,11.75
2022-08-21T12:10:43.655Z,14.00
2022-08-21T12:13:24.096Z,16.27
2022-08-21T12:16:08.475Z,10.35
2022-08-21T12:18:38.567Z,10.38
2022-08-21T12:21:19.660Z,13.43
2022-08-21T12:24:17.479Z,10.32
2022-08-21T12:26:52.620Z,7.35
2022-08-21T12:29:30.496Z,8.52
2022-08-21T12:32:02.115Z,9.88
2022-08-21T12:34:51.603Z,11.38
2022-08-21T12:37:41.608Z,10.27
2022-08-21T12:40:24.402Z,8.60
2022-08-21T12:42:59.312Z,8.63
2022-08-21T12:45:55.130Z,9.27
2022-08-21T12:48:47.777Z,12.85
2022-08-21T12:51:26.987Z,13.20
2022-08-21T12:53:59.646Z,9.77
2022-08-21T12:56:36.673Z,10.38
2022-08-21T12:59:17.697Z,12.20
2022-08-21T13:02:00.583Z,8.77
2022-08-21T13:04:41.172Z,10.65
2022-08-21T13:07:17.600Z,13.48
2022-08-21T13:12:29.617Z,10.82
2022-08-21T13:15:04.317Z,15.85
2022-08-21T13:17:41.219Z,10.43
2022-08-21T13:20:40.051Z,12.80
2022-08-21T13:23:34.132Z,9.10
2022-08-21T13:26:03.819Z,14.63
2022-08-21T13:28:38.612Z,10.73
2022-08-21T13:31:11.132Z,12.13
2022-08-21T13:33:41.290Z,14.25
2022-08-21T13:36:15.298Z,14.10
2022-08-21T13:38:45.127Z,9.68
2022-08-21T13:41:26.815Z,11.00
2022-08-21T13:44:27.353Z,12.05
2022-08-21T13:47:00.589Z,10.63
2022-08-21T13:49:37.808Z,11.43
2022-08-21T13:52:14.470Z,10.45
2022-08-21T13:54:47.857Z,9.13
2022-08-21T13:57:32.663Z,9.13
2022-08-21T14:00:35.067Z,13.55
2022-08-21T14:03:27.029Z,8.88
2022-08-21T14:06:34.722Z,10.52
2022-08-21T14:09:10.639Z,8.88
2022-08-21T14:11:40.511Z,8.60
2022-08-21T14:14:46.780Z,10.05
2022-08-21T14:17:34.027Z,16.73
2022-08-21T14:20:02.568Z,12.88
2022-08-21T14:23:01.433Z,10.45
2022-08-21T14:25:43.930Z,11.00
2022-08-21T14:28:47.522Z,7.30
2022-08-21T14:31:19.526Z,8.70
2022-08-21T14:33:49.955Z,10.55
2022-08-21T14:38:56.849Z,11.32
2022-08-21T14:41:29.015Z,12.25
2022-08-21T14:44:08.111Z,9.00
2022-08-21T14:46:48.714Z,9.60
2022-08-21T14:49:27.663Z,9.00
2022-08-21T14:52:15.954Z,10.85
2022-08-21T14:54:47.338Z,14.18
2022-08-21T14:58:06.272Z,8.85
2022-08-21T15:00:37.078Z,9.35
2022-08-21T15:05:34.009Z,10.50
2022-08-21T15:08:02.710Z,11.05
2022-08-21T15:10:31.554Z,10.60
2022-08-21T15:12:59.670Z,7.43
2022-08-21T15:15:27.397Z,12.05
2022-08-21T15:17:55.469Z,13.00
2022-08-21T15:20:22.964Z,7.47
2022-08-21T15:22:50.768Z,11.05
2022-08-21T15:25:18.445Z,11.02
2022-08-21T15:27:46.014Z,11.70
2022-08-21T15:30:13.848Z,11.32
2022-08-21T15:35:10.641Z,12.43
2022-08-21T15:37:38.267Z,9.35
2022-08-21T15:40:08.119Z,11.35
2022-08-21T15:42:36.374Z,9.70
2022-08-21T15:45:07.725Z,10.07
2022-08-21T15:47:38.273Z,11.18
2022-08-21T15:50:09.096Z,9.73
2022-08-21T15:52:37.022Z,9.38
2022-08-21T15:57:43.288Z,8.15
2022-08-21T16:00:21.053Z,11.10
2022-08-21T16:02:52.490Z,8.75
2022-08-21T16:05:21.720Z,8.80
2022-08-21T16:07:50.114Z,14.15
2022-08-21T16:10:21.659Z,11.00
2022-08-21T16:12:58.830Z,11.30
2022-08-21T16:15:27.663Z,12.98
2022-08-21T16:17:56.107Z,11.45
2022-08-21T16:20:27.034Z,11.18
2022-08-21T16:22:57.207Z,13.00
2022-08-21T16:25:25.360Z,9.52
2022-08-21T16:27:59.641Z,9.70
2022-08-21T16:30:28.635Z,10.20
2022-08-21T16:32:57.230Z,10.73
2022-08-21T16:35:33.995Z,11.95
2022-08-21T16:38:02.268Z,9.55
2022-08-21T16:40:29.959Z,7.97
2022-08-21T16:42:58.055Z,12.85
2022-08-21T16:45:28.803Z,10.60
2022-08-21T16:48:00.504Z,8.95
2022-08-21T16:52:55.603Z,10.27
2022-08-21T16:55:23.110Z,8.82
2022-08-21T16:57:50.718Z,11.43
2022-08-21T17:00:18.366Z,8.23
2022-08-21T17:02:49.355Z,9.73
2022-08-21T17:05:17.397Z,10.77
2022-08-21T17:10:17.338Z,11.40
2022-08-21T17:12:55.072Z,10.07
2022-08-21T17:17:52.499Z,13.48
2022-08-21T17:20:23.579Z,18.73
2022-08-21T17:22:54.923Z,14.10
2022-08-21T17:26:12.650Z,11.48
2022-08-21T17:28:38.658Z,12.88
2022-08-21T17:31:10.387Z,12.45
2022-08-21T17:33:50.388Z,13.10
2022-08-21T17:36:20.418Z,15.32
2022-08-21T17:38:48.162Z,13.93
2022-08-21T17:41:20.238Z,12.68
2022-08-21T17:43:48.549Z,13.95
2022-08-21T17:46:22.219Z,18.33
2022-08-21T17:48:49.991Z,15.88
2022-08-21T17:51:18.512Z,17.70
2022-08-21T17:53:46.582Z,11.07
2022-08-21T17:56:15.809Z,12.18
2022-08-21T17:58:48.513Z,14.40
2022-08-21T18:01:17.029Z,15.98
2022-08-21T18:03:46.993Z,21.92
2022-08-21T18:06:17.693Z,11.75
2022-08-21T18:08:46.584Z,15.18
2022-08-21T18:11:23.212Z,11.40
2022-08-21T18:13:54.091Z,15.05
2022-08-21T18:16:22.840Z,15.38
2022-08-21T18:18:51.969Z,19.25
2022-08-21T18:21:20.091Z,15.10
2022-08-21T18:23:49.514Z,16.92
2022-08-21T18:26:28.132Z,15.68
2022-08-21T18:29:00.348Z,16.88
2022-08-21T18:31:30.281Z,19.52
2022-08-21T18:34:00.296Z,14.07
2022-08-21T18:36:31.318Z,19.50
2022-08-21T18:39:19.406Z,11.75
2022-08-21T18:41:48.895Z,13.45
2022-08-21T18:44:18.823Z,15.15
2022-08-21T18:46:54.669Z,14.75
2022-08-21T18:49:22.428Z,15.82
2022-08-21T18:51:50.693Z,19.27
2022-08-21T18:54:18.795Z,15.50
2022-08-21T18:59:15.089Z,17.77
2022-08-21T19:04:30.138Z,15.57
2022-08-21T19:07:04.283Z,15.65
2022-08-21T19:09:32.303Z,19.52
2022-08-21T19:12:00.019Z,15.10
2022-08-21T19:14:29.239Z,16.65
2022-08-21T19:16:57.068Z,18.35
2022-08-21T19:19:27.016Z,14.80
2022-08-21T19:21:54.697Z,15.52
2022-08-21T19:24:26.360Z,18.23
2022-08-21T19:29:42.782Z,13.18
2022-08-21T19:32:12.325Z,15.18
2022-08-21T19:34:41.175Z,16.27
2022-08-21T19:37:12.070Z,16.08
2022-08-21T19:39:44.886Z,14.77
2022-08-21T19:42:16.221Z,21.30
2022-08-21T19:44:45.257Z,18.45
2022-08-21T19:52:55.224Z,17.73
2022-08-21T19:55:23.580Z,20.17
2022-08-21T20:00:20.444Z,20.60
2022-08-21T20:02:48.432Z,16.40
2022-08-21T20:05:18.223Z,17.42
2022-08-21T20:07:46.044Z,16.15
2022-08-21T20:10:14.027Z,18.23
2022-08-21T20:12:41.758Z,13.48
2022-08-21T20:15:09.636Z,21.98
2022-08-21T20:20:06.653Z,16.67
2022-08-21T20:22:34.634Z,15.60
2022-08-21T20:25:05.167Z,19.55
2022-08-21T20:27:36.400Z,18.70
2022-08-21T20:30:09.859Z,20.65
2022-08-21T20:32:37.747Z,16.27
2022-08-21T20:35:06.478Z,21.65
2022-08-21T20:37:40.134Z,18.85
2022-08-21T20:40:11.021Z,14.50
2022-08-21T20:42:58.886Z,16.02
2022-08-21T20:45:29.862Z,20.17
2022-08-21T20:48:03.866Z,15.52
2022-08-21T20:50:37.071Z,17.50
2022-08-21T20:53:24.239Z,17.83
2022-08-21T20:55:52.055Z,18.07
2022-08-21T21:01:14.336Z,12.40
2022-08-21T21:03:48.640Z,18.95
2022-08-21T21:06:22.565Z,17.35
2022-08-21T21:09:14.634Z,14.65
2022-08-21T21:11:51.920Z,19.20
2022-08-21T21:14:45.175Z,14.57
2022-08-21T21:17:31.335Z,17.75
2022-08-21T21:20:14.334Z,14.25
2022-08-21T21:23:22.150Z,17.02
2022-08-21T21:26:03.844Z,20.25
2022-08-21T21:29:10.568Z,16.75
2022-08-21T21:31:38.470Z,14.43
2022-08-21T21:34:06.633Z,15.55
2022-08-21T21:37:04.686Z,16.23
2022-08-21T21:39:36.153Z,16.05
2022-08-21T21:42:30.231Z,24.17
2022-08-21T21:45:04.107Z,15.80
2022-08-21T21:47:49.698Z,17.92
2022-08-21T21:50:42.693Z,14.30
2022-08-21T21:53:36.812Z,13.32
2022-08-21T21:56:30.835Z,15.20
2022-08-21T21:59:12.214Z,18.95
2022-08-21T22:02:02.018Z,20.95
2022-08-21T22:04:51.496Z,15.95
2022-08-21T22:07:29.269Z,18.98
2022-08-21T22:13:26.211Z,14.60
2022-08-21T22:15:55.652Z,22.15
2022-08-21T22:18:28.588Z,19.65
2022-08-21T22:21:09.667Z,16.88
2022-08-21T22:23:46.383Z,17.42
2022-08-21T22:26:21.215Z,20.27
2022-08-21T22:28:51.820Z,21.70
2022-08-21T22:31:21.399Z,14.88
2022-08-21T22:34:03.929Z,19.98
2022-08-21T22:36:38.740Z,13.25
2022-08-21T22:39:25.436Z,16.50
2022-08-21T22:41:54.439Z,19.85
2022-08-21T22:44:27.250Z,16.17
2022-08-21T22:46:58.957Z,13.57
2022-08-21T22:49:36.527Z,17.40
2022-08-21T22:52:20.419Z,27.90
2022-08-21T22:54:53.259Z,22.45
2022-08-21T22:57:34.384Z,19.88
2022-08-21T23:00:11.112Z,14.48
2022-08-21T23:02:52.267Z,18.27
2022-08-21T23:05:30.567Z,20.27
2022-08-21T23:08:23.914Z,16.17
2022-08-21T23:10:58.111Z,16.30
2022-08-21T23:13:29.623Z,16.63
2022-08-21T23:16:28.179Z,17.13
2022-08-21T23:19:40.241Z,13.88
2022-08-21T23:22:34.915Z,16.42
2022-08-21T23:26:03.553Z,12.73
2022-08-21T23:29:07.715Z,21.15
2022-08-21T23:31:52.146Z,18.30
2022-08-21T23:34:37.939Z,15.25
2022-08-21T23:37:51.727Z,13.50
2022-08-21T23:40:51.071Z,16.58
2022-08-21T23:44:02.787Z,16.52
2022-08-21T23:46:46.109Z,15.60
2022-08-21T23:49:47.534Z,13.68
2022-08-21T23:52:35.159Z,19.42
2022-08-21T23:55:34.769Z,18.67
2022-08-21T23:58:28.552Z,11.68
